createdAt,value
2018-01-27T00:01:47.795Z,16.40
2018-01-27T00:04:37.798Z,16.07
2018-01-27T00:07:11.231Z,17.07
2018-01-27T00:09:40.323Z,17.67
2018-01-27T00:12:08.447Z,15.57
2018-01-27T00:14:36.564Z,15.83
2018-01-27T00:17:04.669Z,16.87
2018-01-27T00:19:32.781Z,16.73
2018-01-27T00:22:00.886Z,16.20
2018-01-27T00:24:45.731Z,18.03
2018-01-27T00:27:13.833Z,16.87
2018-01-27T00:29:41.943Z,17.53
2018-01-27T00:32:16.323Z,18.10
2018-01-27T00:34:44.493Z,16.27
2018-01-27T00:37:12.567Z,15.97
2018-01-27T00:39:40.666Z,16.37
2018-01-27T00:42:08.769Z,17.50
2018-01-27T00:44:36.983Z,16.43
2018-01-27T00:47:05.082Z,16.80
2018-01-27T00:49:33.186Z,16.80
2018-01-27T00:52:01.293Z,17.63
2018-01-27T00:54:29.405Z,17.20
2018-01-27T00:56:57.524Z,16.90
2018-01-27T00:59:25.660Z,16.57
2018-01-27T01:01:53.775Z,16.50
2018-01-27T01:04:21.897Z,16.40
2018-01-27T01:06:53.598Z,16.20
2018-01-27T01:09:21.710Z,15.33
2018-01-27T01:11:50.287Z,15.93
2018-01-27T01:14:18.383Z,16.57
2018-01-27T01:16:46.482Z,17.13
2018-01-27T01:19:14.600Z,15.40
2018-01-27T01:21:42.706Z,16.57
2018-01-27T01:24:10.814Z,15.83
2018-01-27T01:26:38.914Z,17.37
2018-01-27T01:29:07.035Z,17.70
2018-01-27T01:31:35.134Z,17.50
2018-01-27T01:34:03.249Z,17.27
2018-01-27T01:36:31.375Z,18.20
2018-01-27T01:38:59.481Z,17.97
2018-01-27T01:41:27.585Z,20.37
2018-01-27T01:44:01.306Z,19.13
2018-01-27T01:46:29.406Z,18.53
2018-01-27T01:49:09.492Z,17.67
2018-01-27T01:51:37.593Z,17.73
2018-01-27T01:54:05.698Z,19.07
2018-01-27T01:56:33.802Z,18.63
2018-01-27T01:59:01.920Z,17.13
2018-01-27T02:01:30.036Z,17.57
2018-01-27T02:03:58.133Z,17.73
2018-01-27T02:06:26.226Z,19.13
2018-01-27T02:08:54.346Z,18.60
2018-01-27T02:11:22.442Z,17.43
2018-01-27T02:13:50.572Z,17.50
2018-01-27T02:16:18.662Z,17.27
2018-01-27T02:18:46.776Z,18.20
2018-01-27T02:21:14.877Z,18.57
2018-01-27T02:23:42.978Z,17.20
2018-01-27T02:26:11.093Z,18.27
2018-01-27T02:28:39.219Z,17.80
2018-01-27T02:31:07.313Z,17.73
2018-01-27T02:33:35.426Z,17.20
2018-01-27T02:36:03.522Z,17.20
2018-01-27T02:38:31.644Z,17.67
2018-01-27T02:40:59.735Z,17.43
2018-01-27T02:43:27.851Z,17.33
2018-01-27T02:45:55.970Z,18.17
2018-01-27T02:48:24.130Z,16.87
2018-01-27T02:50:52.182Z,17.30
2018-01-27T02:53:20.285Z,17.23
2018-01-27T02:55:48.386Z,16.63
2018-01-27T02:58:16.508Z,17.30
2018-01-27T03:00:44.598Z,17.33
2018-01-27T03:03:12.705Z,17.70
2018-01-27T03:05:40.838Z,17.73
2018-01-27T03:08:08.930Z,16.53
2018-01-27T03:10:37.059Z,19.40
2018-01-27T03:13:05.162Z,17.83
2018-01-27T03:15:33.261Z,19.07
2018-01-27T03:18:01.364Z,18.67
2018-01-27T03:20:29.465Z,17.57
2018-01-27T03:22:57.587Z,17.90
2018-01-27T03:25:25.695Z,18.07
2018-01-27T03:27:53.816Z,17.73
2018-01-27T03:30:21.906Z,17.83
2018-01-27T03:32:50.029Z,18.17
2018-01-27T03:35:18.128Z,17.50
2018-01-27T03:37:46.240Z,21.60
2018-01-27T03:40:14.340Z,18.87
2018-01-27T03:42:42.434Z,18.17
2018-01-27T03:45:10.609Z,17.67
2018-01-27T03:47:38.723Z,18.17
2018-01-27T03:50:06.825Z,17.70
2018-01-27T03:52:34.925Z,18.70
2018-01-27T03:55:03.022Z,17.97
2018-01-27T03:57:31.131Z,18.10
2018-01-27T03:59:59.230Z,18.47
2018-01-27T04:02:27.353Z,19.40
2018-01-27T04:04:55.454Z,19.40
2018-01-27T04:07:23.557Z,21.00
2018-01-27T04:09:51.661Z,19.93
2018-01-27T04:12:19.791Z,21.00
2018-01-27T04:14:47.908Z,20.60
2018-01-27T04:17:15.993Z,21.37
2018-01-27T04:19:44.105Z,20.43
2018-01-27T04:22:12.210Z,22.23
2018-01-27T04:24:40.321Z,22.73
2018-01-27T04:27:08.436Z,25.60
2018-01-27T04:29:36.544Z,22.93
2018-01-27T04:32:04.650Z,23.30
2018-01-27T04:34:32.762Z,23.83
2018-01-27T04:37:00.922Z,24.10
2018-01-27T04:39:29.036Z,21.40
2018-01-27T04:41:57.133Z,23.07
2018-01-27T04:44:25.265Z,22.10
2018-01-27T04:46:53.363Z,21.70
2018-01-27T04:49:21.474Z,23.70
2018-01-27T04:51:49.582Z,25.13
2018-01-27T04:54:17.677Z,24.13
2018-01-27T04:56:45.802Z,25.93
2018-01-27T04:59:13.897Z,26.20
2018-01-27T05:01:42.015Z,25.93
2018-01-27T05:04:10.119Z,25.47
2018-01-27T05:06:38.226Z,24.10
2018-01-27T05:09:06.343Z,23.97
2018-01-27T05:11:34.458Z,24.50
2018-01-27T05:14:02.584Z,23.17
2018-01-27T05:16:30.678Z,25.13
2018-01-27T05:18:58.790Z,26.23
2018-01-27T05:21:26.885Z,26.53
2018-01-27T05:23:55.019Z,26.70
2018-01-27T05:26:23.114Z,25.43
2018-01-27T05:28:51.224Z,24.77
2018-01-27T05:31:19.331Z,24.43
2018-01-27T05:36:41.255Z,24.37
2018-01-27T05:39:09.385Z,25.07
2018-01-27T05:41:37.506Z,24.33
2018-01-27T05:44:05.660Z,24.10
2018-01-27T05:46:33.764Z,25.70
2018-01-27T05:49:01.865Z,26.27
2018-01-27T05:51:29.977Z,25.23
2018-01-27T05:53:58.311Z,24.27
2018-01-27T05:56:44.414Z,24.77
2018-01-27T05:59:12.536Z,23.00
2018-01-27T06:01:40.637Z,22.80
2018-01-27T06:04:08.742Z,26.07
2018-01-27T06:06:36.843Z,25.50
2018-01-27T06:09:04.966Z,26.47
2018-01-27T06:11:36.226Z,27.90
2018-01-27T06:16:59.008Z,29.43
2018-01-27T06:19:27.113Z,28.13
2018-01-27T06:22:12.833Z,30.57
2018-01-27T06:24:44.414Z,28.40
2018-01-27T06:27:12.509Z,30.00
2018-01-27T06:29:40.610Z,29.80
2018-01-27T06:32:08.731Z,30.27
2018-01-27T06:34:36.823Z,30.43
2018-01-27T06:37:04.930Z,30.23
2018-01-27T06:39:33.039Z,31.73
2018-01-27T06:42:01.145Z,31.80
2018-01-27T06:44:29.263Z,32.20
2018-01-27T06:46:57.376Z,31.60
2018-01-27T06:49:25.473Z,32.47
2018-01-27T06:51:59.808Z,33.63
2018-01-27T06:54:28.810Z,33.63
2018-01-27T06:56:56.925Z,32.73
2018-01-27T06:59:25.037Z,32.43
2018-01-27T07:01:53.137Z,34.50
2018-01-27T07:04:21.241Z,33.67
2018-01-27T07:06:49.371Z,33.63
2018-01-27T07:09:24.410Z,33.43
2018-01-27T07:12:04.383Z,34.83
2018-01-27T07:14:32.497Z,31.93
2018-01-27T07:17:00.615Z,33.80
2018-01-27T07:19:28.740Z,31.43
2018-01-27T07:22:00.389Z,33.87
2018-01-27T07:24:28.508Z,34.67
2018-01-27T07:26:56.630Z,32.37
2018-01-27T07:29:24.744Z,31.40
2018-01-27T07:31:53.745Z,33.93
2018-01-27T07:34:22.800Z,33.87
2018-01-27T07:36:50.922Z,32.57
2018-01-27T07:39:19.045Z,31.60
2018-01-27T07:41:47.145Z,30.43
2018-01-27T07:44:15.249Z,33.07
2018-01-27T07:46:43.378Z,33.47
2018-01-27T07:49:11.469Z,32.57
2018-01-27T07:51:42.884Z,34.13
2018-01-27T07:54:10.977Z,34.47
2018-01-27T07:56:51.921Z,33.63
2018-01-27T07:59:20.039Z,32.87
2018-01-27T08:01:50.114Z,35.77
2018-01-27T08:04:18.236Z,34.80
2018-01-27T08:06:46.334Z,33.33
2018-01-27T08:09:14.467Z,34.13
2018-01-27T08:11:47.226Z,33.87
2018-01-27T08:14:16.308Z,35.07
2018-01-27T08:16:44.411Z,35.37
2018-01-27T08:19:14.245Z,33.47
2018-01-27T08:21:42.345Z,32.47
2018-01-27T08:24:10.451Z,34.00
2018-01-27T08:26:38.584Z,35.37
2018-01-27T08:29:06.677Z,34.67
2018-01-27T08:31:34.795Z,33.93
2018-01-27T08:34:04.892Z,31.97
2018-01-27T08:36:33.018Z,33.10
2018-01-27T08:39:05.031Z,32.33
2018-01-27T08:41:33.130Z,31.23
2018-01-27T08:44:01.253Z,29.67
2018-01-27T08:46:29.350Z,31.77
2018-01-27T08:48:57.452Z,30.70
2018-01-27T08:51:25.553Z,31.77
2018-01-27T08:53:59.398Z,33.13
2018-01-27T08:56:27.511Z,34.03
2018-01-27T08:58:55.640Z,31.70
2018-01-27T09:01:23.746Z,31.77
2018-01-27T09:03:51.854Z,31.33
2018-01-27T09:06:19.958Z,30.03
2018-01-27T09:08:48.369Z,31.90
2018-01-27T09:11:27.619Z,31.77
2018-01-27T09:13:55.734Z,33.17
2018-01-27T09:16:23.841Z,33.20
2018-01-27T09:18:51.969Z,36.17
2018-01-27T09:21:20.084Z,35.60
2018-01-27T09:23:48.200Z,34.17
2018-01-27T09:26:16.305Z,36.17
2018-01-27T09:28:44.407Z,37.63
2018-01-27T09:31:12.548Z,38.40
2018-01-27T09:33:40.638Z,37.23
2018-01-27T09:36:12.083Z,37.60
2018-01-27T09:38:40.186Z,37.87
2018-01-27T09:41:08.320Z,40.83
2018-01-27T09:43:36.456Z,36.70
2018-01-27T09:46:04.553Z,37.10
2018-01-27T09:48:32.683Z,39.63
2018-01-27T09:51:00.817Z,37.60
2018-01-27T09:53:28.917Z,38.97
2018-01-27T09:56:04.253Z,36.37
2018-01-27T09:58:32.384Z,38.43
2018-01-27T10:01:00.477Z,37.67
2018-01-27T10:03:28.586Z,37.43
2018-01-27T10:06:01.108Z,37.53
2018-01-27T10:08:34.075Z,40.47
2018-01-27T10:11:06.063Z,40.23
2018-01-27T10:13:48.423Z,37.87
2018-01-27T10:16:16.560Z,36.80
2018-01-27T10:18:48.989Z,38.23
2018-01-27T10:21:17.132Z,35.67
2018-01-27T10:23:46.201Z,38.90
2018-01-27T10:26:20.932Z,37.20
2018-01-27T10:28:50.998Z,39.00
2018-01-27T10:31:21.044Z,36.13
2018-01-27T10:33:49.172Z,37.47
2018-01-27T10:36:19.218Z,35.70
2018-01-27T10:38:47.355Z,36.67
2018-01-27T10:41:17.401Z,32.97
2018-01-27T10:43:48.977Z,34.70
2018-01-27T10:46:17.118Z,35.03
2018-01-27T10:48:45.232Z,33.43
2018-01-27T10:51:13.345Z,29.07
2018-01-27T10:53:47.108Z,30.00
2018-01-27T10:56:15.304Z,30.20
2018-01-27T10:58:57.656Z,28.90
2018-01-27T11:01:25.766Z,27.27
2018-01-27T11:03:53.871Z,25.33
2018-01-27T11:06:21.974Z,26.77
2018-01-27T11:08:50.080Z,24.10
2018-01-27T11:11:18.182Z,20.00
2018-01-27T11:13:47.257Z,21.23
2018-01-27T11:16:16.341Z,20.27
2018-01-27T11:18:44.457Z,21.17
2018-01-27T11:21:23.796Z,17.40
2018-01-27T11:23:53.877Z,17.63
2018-01-27T11:26:21.973Z,15.93
2018-01-27T11:28:51.024Z,15.30
2018-01-27T11:31:22.377Z,15.93
2018-01-27T11:33:50.466Z,14.67
2018-01-27T11:36:23.124Z,14.23
2018-01-27T11:38:51.240Z,14.90
2018-01-27T11:41:19.346Z,16.03
2018-01-27T11:43:47.454Z,15.73
2018-01-27T11:46:15.561Z,15.73
2018-01-27T11:48:43.765Z,16.67
2018-01-27T11:51:11.909Z,17.33
2018-01-27T11:53:39.996Z,16.90
2018-01-27T11:56:08.120Z,16.60
2018-01-27T11:58:36.247Z,17.30
2018-01-27T12:01:17.033Z,18.53
2018-01-27T12:03:45.159Z,17.40
2018-01-27T12:06:13.269Z,17.63
2018-01-27T12:08:41.369Z,17.77
2018-01-27T12:11:21.377Z,18.63
2018-01-27T12:17:07.168Z,20.37
2018-01-27T12:19:35.271Z,18.43
2018-01-27T12:22:03.392Z,20.30
2018-01-27T12:24:31.499Z,20.23
2018-01-27T12:27:02.891Z,18.90
2018-01-27T12:29:37.467Z,20.07
2018-01-27T12:32:06.521Z,20.17
2018-01-27T12:34:34.619Z,20.67
2018-01-27T12:37:06.552Z,19.17
2018-01-27T12:39:34.650Z,19.37
2018-01-27T12:42:20.878Z,18.33
2018-01-27T12:44:49.145Z,17.77
2018-01-27T12:47:30.046Z,15.30
2018-01-27T12:49:58.172Z,15.77
2018-01-27T12:52:26.288Z,17.23
2018-01-27T12:54:54.431Z,16.20
2018-01-27T12:57:25.826Z,15.67
2018-01-27T13:00:06.176Z,15.63
2018-01-27T13:02:34.296Z,13.50
2018-01-27T13:05:03.429Z,14.23
2018-01-27T13:07:48.486Z,14.53
2018-01-27T13:10:18.547Z,13.80
2018-01-27T13:12:49.688Z,13.30
2018-01-27T13:15:17.804Z,13.23
2018-01-27T13:17:45.914Z,13.27
2018-01-27T13:20:18.022Z,14.07
2018-01-27T13:22:46.229Z,13.97
2018-01-27T13:25:37.797Z,13.93
2018-01-27T13:28:12.632Z,14.33
2018-01-27T13:30:40.758Z,14.17
2018-01-27T13:33:08.877Z,15.23
2018-01-27T13:35:36.997Z,14.97
2018-01-27T13:38:05.132Z,14.93
2018-01-27T13:40:33.223Z,15.20
2018-01-27T13:43:01.363Z,15.67
2018-01-27T13:45:29.470Z,13.73
2018-01-27T13:48:01.805Z,14.47
2018-01-27T13:50:29.945Z,13.90
2018-01-27T13:52:58.058Z,15.37
2018-01-27T13:55:26.161Z,14.40
2018-01-27T13:57:54.280Z,15.53
2018-01-27T14:00:22.398Z,14.97
2018-01-27T14:02:50.516Z,14.97
2018-01-27T14:05:18.633Z,14.60
2018-01-27T14:07:46.747Z,14.67
2018-01-27T14:10:16.768Z,15.43
2018-01-27T14:12:44.865Z,14.23
2018-01-27T14:15:12.997Z,16.23
2018-01-27T14:17:41.115Z,14.60
2018-01-27T14:20:09.223Z,14.63
2018-01-27T14:22:37.367Z,16.33
2018-01-27T14:25:05.483Z,15.37
2018-01-27T14:27:33.592Z,14.33
2018-01-27T14:30:01.722Z,14.38
2018-01-27T14:32:31.724Z,14.60
2018-01-27T14:35:00.761Z,15.17
2018-01-27T14:37:28.883Z,15.47
2018-01-27T14:39:56.992Z,14.63
2018-01-27T14:42:35.826Z,14.03
2018-01-27T14:45:03.938Z,14.07
2018-01-27T14:47:32.163Z,14.47
2018-01-27T14:50:02.215Z,14.30
2018-01-27T14:52:30.336Z,14.93
2018-01-27T14:54:59.402Z,13.50
2018-01-27T14:57:27.516Z,13.67
2018-01-27T14:59:55.625Z,13.53
2018-01-27T15:02:23.730Z,13.60
2018-01-27T15:04:51.852Z,13.87
2018-01-27T15:07:20.986Z,14.00
2018-01-27T15:09:49.124Z,12.60
2018-01-27T15:12:17.243Z,13.00
2018-01-27T15:14:45.344Z,13.83
2018-01-27T15:17:18.094Z,12.40
2018-01-27T15:19:48.101Z,12.17
2018-01-27T15:22:16.258Z,13.20
2018-01-27T15:24:44.351Z,13.67
2018-01-27T15:27:12.477Z,13.63
2018-01-27T15:29:40.591Z,12.80
2018-01-27T15:32:09.075Z,12.50
2018-01-27T15:34:37.190Z,11.90
2018-01-27T15:37:06.236Z,12.37
2018-01-27T15:39:40.333Z,12.00
2018-01-27T15:42:08.568Z,13.23
2018-01-27T15:44:36.876Z,12.20
2018-01-27T15:47:05.012Z,11.43
2018-01-27T15:49:34.035Z,11.83
2018-01-27T15:52:15.600Z,12.53
2018-01-27T15:54:45.593Z,10.90
2018-01-27T15:57:20.780Z,10.50
2018-01-27T15:59:48.887Z,11.23
2018-01-27T16:02:16.989Z,9.83
2018-01-27T16:04:50.022Z,10.23
2018-01-27T16:07:19.042Z,9.20
2018-01-27T16:09:48.051Z,9.90
2018-01-27T16:12:16.146Z,10.17
2018-01-27T16:14:47.561Z,9.40
2018-01-27T16:17:15.660Z,9.67
2018-01-27T16:19:43.768Z,9.40
2018-01-27T16:22:12.905Z,8.50
2018-01-27T16:24:41.006Z,7.93
2018-01-27T16:27:09.106Z,8.63
2018-01-27T16:29:37.479Z,8.40
2018-01-27T16:32:05.588Z,8.77
2018-01-27T16:34:33.730Z,8.87
2018-01-27T16:37:01.833Z,9.43
2018-01-27T16:39:29.955Z,9.27
2018-01-27T16:41:58.094Z,9.17
2018-01-27T16:44:26.271Z,8.83
2018-01-27T16:46:54.513Z,8.93
2018-01-27T16:49:22.666Z,8.27
2018-01-27T16:51:50.775Z,7.23
2018-01-27T16:54:18.885Z,8.57
2018-01-27T16:56:46.982Z,9.10
2018-01-27T16:59:15.092Z,8.77
2018-01-27T17:01:49.028Z,8.43
2018-01-27T17:04:17.137Z,8.53
2018-01-27T17:06:45.253Z,8.10
2018-01-27T17:09:13.345Z,8.43
2018-01-27T17:11:41.449Z,8.07
2018-01-27T17:14:09.571Z,8.23
2018-01-27T17:16:37.671Z,8.70
2018-01-27T17:19:05.780Z,7.60
2018-01-27T17:21:34.785Z,8.07
2018-01-27T17:24:02.902Z,7.50
2018-01-27T17:26:34.120Z,7.57
2018-01-27T17:29:02.225Z,7.30
2018-01-27T17:31:30.326Z,7.20
2018-01-27T17:34:03.265Z,7.50
2018-01-27T17:36:31.366Z,7.03
2018-01-27T17:38:59.454Z,7.20
2018-01-27T17:41:31.054Z,7.37
2018-01-27T17:43:59.176Z,7.40
2018-01-27T17:46:28.184Z,7.13
2018-01-27T17:48:58.204Z,7.23
2018-01-27T17:51:26.310Z,7.70
2018-01-27T17:53:54.405Z,8.57
2018-01-27T17:56:22.542Z,8.30
2018-01-27T17:58:54.423Z,8.23
2018-01-27T18:01:22.513Z,8.47
2018-01-27T18:03:50.625Z,8.23
2018-01-27T18:06:24.998Z,8.67
2018-01-27T18:08:53.124Z,7.73
2018-01-27T18:11:21.213Z,8.00
2018-01-27T18:13:49.329Z,8.23
2018-01-27T18:16:19.334Z,8.73
2018-01-27T18:18:47.444Z,8.20
2018-01-27T18:21:21.371Z,7.57
2018-01-27T18:23:54.275Z,7.87
2018-01-27T18:26:41.381Z,7.97
2018-01-27T18:29:16.695Z,7.60
2018-01-27T18:31:47.888Z,7.93
2018-01-27T18:34:15.996Z,7.83
2018-01-27T18:36:51.469Z,8.00
2018-01-27T18:39:20.483Z,8.13
2018-01-27T18:41:48.608Z,8.37
2018-01-27T18:44:27.979Z,7.80
2018-01-27T18:46:59.055Z,8.17
2018-01-27T18:49:28.133Z,8.03
2018-01-27T18:51:56.248Z,8.50
2018-01-27T18:54:24.379Z,7.87
2018-01-27T18:56:52.502Z,7.93
2018-01-27T18:59:30.836Z,7.90
2018-01-27T19:01:58.931Z,7.43
2018-01-27T19:04:27.044Z,7.23
2018-01-27T19:06:55.173Z,7.27
2018-01-27T19:09:23.261Z,6.93
2018-01-27T19:11:51.369Z,7.30
2018-01-27T19:14:36.282Z,6.27
2018-01-27T19:17:06.336Z,6.40
2018-01-27T19:19:35.397Z,7.00
2018-01-27T19:22:03.508Z,6.43
2018-01-27T19:27:51.909Z,6.77
2018-01-27T19:30:35.494Z,6.77
2018-01-27T19:33:18.474Z,6.43
2018-01-27T19:35:54.920Z,6.50
2018-01-27T19:38:24.135Z,6.70
2018-01-27T19:40:52.672Z,7.03
2018-01-27T19:43:21.188Z,6.67
2018-01-27T19:45:51.907Z,6.73
2018-01-27T19:48:21.456Z,6.77
2018-01-27T19:50:51.868Z,6.93
2018-01-27T19:53:21.294Z,7.03
2018-01-27T19:55:58.464Z,6.43
2018-01-27T19:58:28.172Z,7.30
2018-01-27T20:01:04.158Z,6.20
2018-01-27T20:03:33.147Z,6.70
2018-01-27T20:06:01.503Z,6.13
2018-01-27T20:08:40.840Z,6.43
2018-01-27T20:11:25.029Z,6.50
2018-01-27T20:13:58.640Z,7.00
2018-01-27T20:16:26.793Z,6.63
2018-01-27T20:18:55.047Z,6.00
2018-01-27T20:21:28.308Z,6.37
2018-01-27T20:23:56.511Z,6.27
2018-01-27T20:26:34.988Z,6.30
2018-01-27T20:29:05.186Z,6.93
2018-01-27T20:31:34.588Z,6.63
2018-01-27T20:34:04.982Z,6.53
2018-01-27T20:36:46.980Z,6.70
2018-01-27T20:39:28.679Z,6.10
2018-01-27T20:41:56.925Z,6.87
2018-01-27T20:44:44.107Z,6.50
2018-01-27T20:47:12.383Z,6.90
2018-01-27T20:49:41.547Z,6.90
2018-01-27T20:52:13.443Z,6.40
2018-01-27T20:54:44.794Z,6.80
2018-01-27T20:57:21.303Z,7.10
2018-01-27T20:59:49.560Z,6.10
2018-01-27T21:02:17.795Z,6.60
2018-01-27T21:04:46.055Z,6.47
2018-01-27T21:07:20.694Z,6.67
2018-01-27T21:09:52.206Z,6.27
2018-01-27T21:12:20.473Z,6.80
2018-01-27T21:14:49.673Z,6.70
2018-01-27T21:17:18.078Z,6.70
2018-01-27T21:19:46.430Z,7.10
2018-01-27T21:22:14.663Z,7.00
2018-01-27T21:24:43.029Z,6.50
2018-01-27T21:27:20.921Z,7.30
2018-01-27T21:29:52.843Z,6.97
2018-01-27T21:32:22.057Z,6.53
2018-01-27T21:34:50.269Z,6.37
2018-01-27T21:37:20.553Z,6.50
2018-01-27T21:39:57.872Z,6.03
2018-01-27T21:42:27.219Z,5.90
2018-01-27T21:44:55.423Z,5.97
2018-01-27T21:47:25.545Z,6.37
2018-01-27T21:49:53.741Z,6.53
2018-01-27T21:52:22.930Z,6.60
2018-01-27T21:54:52.128Z,7.10
2018-01-27T21:57:27.073Z,6.03
2018-01-27T21:59:55.356Z,6.83
2018-01-27T22:02:24.581Z,6.40
2018-01-27T22:04:52.915Z,6.97
2018-01-27T22:07:22.981Z,6.90
2018-01-27T22:09:51.212Z,7.10
2018-01-27T22:12:19.420Z,7.13
2018-01-27T22:14:47.704Z,7.13
2018-01-27T22:17:19.737Z,6.83
2018-01-27T22:19:48.068Z,6.57
2018-01-27T22:22:25.572Z,6.83
2018-01-27T22:24:54.868Z,7.30
2018-01-27T22:27:31.761Z,6.40
2018-01-27T22:30:04.197Z,6.63
2018-01-27T22:32:32.551Z,6.70
2018-01-27T22:35:00.723Z,7.17
2018-01-27T22:37:30.063Z,6.17
2018-01-27T22:39:58.408Z,5.70
2018-01-27T22:42:41.888Z,5.53
2018-01-27T22:45:10.194Z,6.13
2018-01-27T22:47:38.398Z,5.70
2018-01-27T22:50:08.734Z,5.00
2018-01-27T22:52:37.528Z,5.93
2018-01-27T22:55:05.729Z,5.53
2018-01-27T22:57:39.596Z,4.77
2018-01-27T23:00:07.896Z,4.67
2018-01-27T23:02:36.144Z,4.83
2018-01-27T23:05:04.512Z,5.00
2018-01-27T23:07:32.748Z,5.27
2018-01-27T23:10:01.040Z,4.97
2018-01-27T23:12:29.261Z,6.67
2018-01-27T23:14:57.553Z,6.03
2018-01-27T23:17:25.963Z,5.57
2018-01-27T23:19:54.168Z,5.63
2018-01-27T23:22:22.426Z,5.73
2018-01-27T23:24:51.499Z,6.33
2018-01-27T23:27:41.743Z,5.47
2018-01-27T23:30:09.965Z,5.50
2018-01-27T23:32:38.315Z,6.87
2018-01-27T23:35:06.539Z,6.70
2018-01-27T23:37:46.508Z,6.87
2018-01-27T23:40:15.685Z,6.73
2018-01-27T23:42:43.972Z,6.37
2018-01-27T23:45:25.257Z,7.10
2018-01-27T23:47:53.553Z,6.90
2018-01-27T23:50:22.167Z,7.53
2018-01-27T23:52:50.595Z,7.47
2018-01-27T23:55:18.842Z,8.13
2018-01-27T23:57:47.141Z,6.97
